sensor_id;sensor_type;location;lat;lon;timestamp;pressure;altitude;pressure_sealevel;temperature;humidity
62592;BME280;48659;41.622;2.276;2022-08-11T00:01:07;99776.08;;;22.44;53.48
62592;BME280;48659;41.622;2.276;2022-08-11T00:03:36;99768.94;;;22.72;53.02
62592;BME280;48659;41.622;2.276;2022-08-11T00:06:09;99769.23;;;24.53;48.73
62592;BME280;48659;41.622;2.276;2022-08-11T00:08:37;99772.35;;;23.01;51.29
62592;BME280;48659;41.622;2.276;2022-08-11T00:14:34;99766.62;;;24.80;45.77
62592;BME280;48659;41.622;2.276;2022-08-11T00:17:05;99766.08;;;25.36;45.36
62592;BME280;48659;41.622;2.276;2022-08-11T00:19:37;99768.05;;;25.06;45.54
62592;BME280;48659;41.622;2.276;2022-08-11T00:22:05;99767.59;;;25.09;45.80
62592;BME280;48659;41.622;2.276;2022-08-11T00:24:35;99775.02;;;23.76;47.10
62592;BME280;48659;41.622;2.276;2022-08-11T00:27:05;99776.29;;;24.13;47.63
62592;BME280;48659;41.622;2.276;2022-08-11T00:29:32;99773.53;;;23.91;46.88
62592;BME280;48659;41.622;2.276;2022-08-11T00:32:03;99769.39;;;23.36;49.87
62592;BME280;48659;41.622;2.276;2022-08-11T00:34:35;99764.06;;;24.30;46.37
62592;BME280;48659;41.622;2.276;2022-08-11T00:37:07;99764.03;;;24.91;45.62
62592;BME280;48659;41.622;2.276;2022-08-11T00:39:42;99759.15;;;25.91;43.64
62592;BME280;48659;41.622;2.276;2022-08-11T00:42:18;99760.48;;;25.97;43.45
62592;BME280;48659;41.622;2.276;2022-08-11T00:45:01;99765.61;;;23.83;48.46
62592;BME280;48659;41.622;2.276;2022-08-11T00:47:43;99765.04;;;24.81;46.14
62592;BME280;48659;41.622;2.276;2022-08-11T00:50:20;99771.93;;;24.84;47.26
62592;BME280;48659;41.622;2.276;2022-08-11T00:53:02;99766.87;;;25.50;45.41
62592;BME280;48659;41.622;2.276;2022-08-11T01:01:01;99789.79;;;24.26;49.83
62592;BME280;48659;41.622;2.276;2022-08-11T01:03:51;99791.29;;;22.37;51.04
62592;BME280;48659;41.622;2.276;2022-08-11T01:06:38;99790.70;;;23.36;49.23
62592;BME280;48659;41.622;2.276;2022-08-11T01:09:32;99787.42;;;24.43;47.68
62592;BME280;48659;41.622;2.276;2022-08-11T01:12:29;99780.52;;;25.88;44.71
62592;BME280;48659;41.622;2.276;2022-08-11T01:16:45;99778.58;;;25.92;45.17
62592;BME280;48659;41.622;2.276;2022-08-11T01:19:45;99778.67;;;26.62;42.83
62592;BME280;48659;41.622;2.276;2022-08-11T01:22:35;99777.98;;;24.13;46.62
62592;BME280;48659;41.622;2.276;2022-08-11T01:27:37;99772.71;;;25.89;45.46
62592;BME280;48659;41.622;2.276;2022-08-11T01:30:42;99771.04;;;25.28;45.80
62592;BME280;48659;41.622;2.276;2022-08-11T01:33:48;99765.46;;;26.34;43.06
62592;BME280;48659;41.622;2.276;2022-08-11T01:36:43;99767.22;;;23.64;45.83
62592;BME280;48659;41.622;2.276;2022-08-11T01:41:12;99768.26;;;25.56;43.54
62592;BME280;48659;41.622;2.276;2022-08-11T01:44:04;99769.42;;;23.52;45.98
62592;BME280;48659;41.622;2.276;2022-08-11T01:46:44;99769.09;;;23.03;46.87
62592;BME280;48659;41.622;2.276;2022-08-11T01:49:20;99770.36;;;22.97;48.34
62592;BME280;48659;41.622;2.276;2022-08-11T01:52:03;99772.68;;;23.72;46.86
62592;BME280;48659;41.622;2.276;2022-08-11T01:54:41;99768.44;;;25.31;43.60
62592;BME280;48659;41.622;2.276;2022-08-11T01:57:20;99770.24;;;26.16;41.73
62592;BME280;48659;41.622;2.276;2022-08-11T02:00:08;99774.15;;;25.83;41.78
62592;BME280;48659;41.622;2.276;2022-08-11T02:02:48;99774.21;;;26.50;40.14
62592;BME280;48659;41.622;2.276;2022-08-11T02:05:46;99773.75;;;24.97;42.82
62592;BME280;48659;41.622;2.276;2022-08-11T02:08:40;99773.62;;;25.12;42.60
62592;BME280;48659;41.622;2.276;2022-08-11T02:11:21;99776.91;;;23.57;44.92
62592;BME280;48659;41.622;2.276;2022-08-11T02:13:54;99772.40;;;25.61;41.25
62592;BME280;48659;41.622;2.276;2022-08-11T02:16:47;99768.76;;;26.04;40.57
62592;BME280;48659;41.622;2.276;2022-08-11T02:19:24;99775.83;;;24.25;43.53
62592;BME280;48659;41.622;2.276;2022-08-11T02:22:15;99771.91;;;24.99;42.01
62592;BME280;48659;41.622;2.276;2022-08-11T02:24:57;99773.13;;;24.85;42.60
62592;BME280;48659;41.622;2.276;2022-08-11T02:27:36;99768.38;;;25.61;41.22
62592;BME280;48659;41.622;2.276;2022-08-11T02:30:08;99762.50;;;26.47;38.87
62592;BME280;48659;41.622;2.276;2022-08-11T02:32:45;99755.46;;;27.36;37.58
62592;BME280;48659;41.622;2.276;2022-08-11T02:35:18;99757.50;;;27.45;37.75
62592;BME280;48659;41.622;2.276;2022-08-11T02:37:54;99751.60;;;27.55;37.04
62592;BME280;48659;41.622;2.276;2022-08-11T02:40:35;99753.21;;;27.98;36.03
62592;BME280;48659;41.622;2.276;2022-08-11T02:43:21;99749.62;;;28.26;35.73
62592;BME280;48659;41.622;2.276;2022-08-11T02:46:01;99750.99;;;28.34;36.33
62592;BME280;48659;41.622;2.276;2022-08-11T02:48:42;99756.42;;;27.69;36.85
62592;BME280;48659;41.622;2.276;2022-08-11T02:51:19;99757.62;;;28.52;36.41
62592;BME280;48659;41.622;2.276;2022-08-11T02:54:00;99756.89;;;28.10;36.34
62592;BME280;48659;41.622;2.276;2022-08-11T02:56:39;99759.90;;;27.92;36.40
62592;BME280;48659;41.622;2.276;2022-08-11T02:59:16;99758.29;;;28.44;36.06
62592;BME280;48659;41.622;2.276;2022-08-11T03:01:50;99755.26;;;28.11;35.98
62592;BME280;48659;41.622;2.276;2022-08-11T03:04:24;99753.48;;;28.38;36.64
62592;BME280;48659;41.622;2.276;2022-08-11T03:07:00;99753.16;;;27.70;37.59
62592;BME280;48659;41.622;2.276;2022-08-11T03:09:45;99758.34;;;28.17;37.03
62592;BME280;48659;41.622;2.276;2022-08-11T03:12:22;99760.17;;;27.87;37.42
62592;BME280;48659;41.622;2.276;2022-08-11T03:14:54;99758.46;;;27.48;37.75
62592;BME280;48659;41.622;2.276;2022-08-11T03:17:31;99762.83;;;27.85;37.42
62592;BME280;48659;41.622;2.276;2022-08-11T03:20:13;99759.46;;;27.81;37.94
62592;BME280;48659;41.622;2.276;2022-08-11T03:22:51;99764.25;;;27.82;38.04
62592;BME280;48659;41.622;2.276;2022-08-11T03:25:48;99773.99;;;26.34;40.13
62592;BME280;48659;41.622;2.276;2022-08-11T03:28:26;99770.91;;;26.73;39.72
62592;BME280;48659;41.622;2.276;2022-08-11T03:31:03;99769.89;;;26.86;39.65
62592;BME280;48659;41.622;2.276;2022-08-11T03:33:47;99767.21;;;27.00;38.36
62592;BME280;48659;41.622;2.276;2022-08-11T03:36:32;99767.03;;;26.19;40.89
62592;BME280;48659;41.622;2.276;2022-08-11T03:39:18;99769.21;;;25.70;41.43
62592;BME280;48659;41.622;2.276;2022-08-11T03:41:54;99769.49;;;26.84;39.31
62592;BME280;48659;41.622;2.276;2022-08-11T03:44:33;99770.20;;;27.14;39.29
62592;BME280;48659;41.622;2.276;2022-08-11T03:47:44;99772.46;;;26.77;39.56
62592;BME280;48659;41.622;2.276;2022-08-11T03:50:23;99770.56;;;27.02;39.46
62592;BME280;48659;41.622;2.276;2022-08-11T03:53:04;99769.21;;;27.04;39.50
62592;BME280;48659;41.622;2.276;2022-08-11T03:55:57;99774.13;;;24.03;44.27
62592;BME280;48659;41.622;2.276;2022-08-11T03:58:45;99782.77;;;24.20;45.17
62592;BME280;48659;41.622;2.276;2022-08-11T04:01:43;99782.56;;;26.15;41.37
62592;BME280;48659;41.622;2.276;2022-08-11T04:04:35;99786.13;;;26.16;41.61
62592;BME280;48659;41.622;2.276;2022-08-11T04:07:29;99784.08;;;25.54;44.04
62592;BME280;48659;41.622;2.276;2022-08-11T04:10:16;99783.25;;;25.29;44.92
62592;BME280;48659;41.622;2.276;2022-08-11T04:13:08;99787.08;;;26.16;43.47
62592;BME280;48659;41.622;2.276;2022-08-11T04:16:46;99794.95;;;25.85;43.23
62592;BME280;48659;41.622;2.276;2022-08-11T04:24:53;99798.24;;;26.32;42.93
62592;BME280;48659;41.622;2.276;2022-08-11T04:27:52;99798.03;;;26.08;41.00
62592;BME280;48659;41.622;2.276;2022-08-11T04:30:50;99795.25;;;26.43;41.05
62592;BME280;48659;41.622;2.276;2022-08-11T04:35:39;99799.95;;;26.59;41.33
62592;BME280;48659;41.622;2.276;2022-08-11T04:38:31;99799.91;;;26.10;41.52
62592;BME280;48659;41.622;2.276;2022-08-11T04:41:51;99796.45;;;26.47;41.80
62592;BME280;48659;41.622;2.276;2022-08-11T04:48:28;99791.17;;;27.08;42.14
62592;BME280;48659;41.622;2.276;2022-08-11T04:51:23;99788.24;;;26.39;42.24
62592;BME280;48659;41.622;2.276;2022-08-11T04:54:04;99790.54;;;26.73;41.39
62592;BME280;48659;41.622;2.276;2022-08-11T04:56:35;99795.62;;;26.44;41.32
62592;BME280;48659;41.622;2.276;2022-08-11T04:59:37;99798.23;;;27.07;41.28
62592;BME280;48659;41.622;2.276;2022-08-11T05:02:35;99798.73;;;26.68;41.93
62592;BME280;48659;41.622;2.276;2022-08-11T05:05:22;99798.96;;;26.98;41.44
62592;BME280;48659;41.622;2.276;2022-08-11T05:08:27;99798.65;;;26.63;42.45
62592;BME280;48659;41.622;2.276;2022-08-11T05:13:22;99800.90;;;26.97;42.90
62592;BME280;48659;41.622;2.276;2022-08-11T05:15:53;99803.08;;;27.24;41.89
62592;BME280;48659;41.622;2.276;2022-08-11T05:18:23;99802.07;;;27.20;40.53
62592;BME280;48659;41.622;2.276;2022-08-11T05:20:55;99804.47;;;24.67;43.56
62592;BME280;48659;41.622;2.276;2022-08-11T05:23:27;99806.47;;;22.75;44.69
62592;BME280;48659;41.622;2.276;2022-08-11T05:25:58;99805.52;;;23.19;44.62
62592;BME280;48659;41.622;2.276;2022-08-11T05:28:35;99802.22;;;23.37;44.64
62592;BME280;48659;41.622;2.276;2022-08-11T05:31:09;99801.10;;;23.80;44.00
62592;BME280;48659;41.622;2.276;2022-08-11T05:33:45;99802.53;;;24.03;43.38
62592;BME280;48659;41.622;2.276;2022-08-11T05:36:20;99806.89;;;25.06;41.70
62592;BME280;48659;41.622;2.276;2022-08-11T05:38:57;99805.44;;;23.87;42.66
62592;BME280;48659;41.622;2.276;2022-08-11T05:41:27;99812.76;;;24.61;42.41
62592;BME280;48659;41.622;2.276;2022-08-11T05:43:58;99809.99;;;24.75;41.76
62592;BME280;48659;41.622;2.276;2022-08-11T05:46:27;99816.66;;;23.20;46.04
62592;BME280;48659;41.622;2.276;2022-08-11T05:48:55;99818.88;;;24.47;44.69
62592;BME280;48659;41.622;2.276;2022-08-11T05:51:32;99813.82;;;25.67;41.28
62592;BME280;48659;41.622;2.276;2022-08-11T05:54:03;99813.51;;;26.37;40.51
62592;BME280;48659;41.622;2.276;2022-08-11T05:56:34;99813.14;;;26.93;39.36
62592;BME280;48659;41.622;2.276;2022-08-11T05:59:11;99809.97;;;27.58;38.43
62592;BME280;48659;41.622;2.276;2022-08-11T06:01:41;99810.78;;;27.33;37.88
62592;BME280;48659;41.622;2.276;2022-08-11T06:04:15;99808.11;;;27.47;37.59
62592;BME280;48659;41.622;2.276;2022-08-11T06:06:53;99810.02;;;27.68;37.42
62592;BME280;48659;41.622;2.276;2022-08-11T06:09:37;99806.25;;;28.09;37.20
62592;BME280;48659;41.622;2.276;2022-08-11T06:12:06;99810.27;;;28.34;36.21
62592;BME280;48659;41.622;2.276;2022-08-11T06:14:40;99814.25;;;28.84;35.98
62592;BME280;48659;41.622;2.276;2022-08-11T06:17:08;99811.81;;;28.10;36.45
62592;BME280;48659;41.622;2.276;2022-08-11T06:19:39;99817.12;;;27.32;37.52
62592;BME280;48659;41.622;2.276;2022-08-11T06:22:10;99813.22;;;28.37;36.37
62592;BME280;48659;41.622;2.276;2022-08-11T06:24:40;99811.32;;;28.26;36.92
62592;BME280;48659;41.622;2.276;2022-08-11T06:27:08;99816.72;;;28.52;36.41
62592;BME280;48659;41.622;2.276;2022-08-11T06:29:37;99819.60;;;28.71;36.14
62592;BME280;48659;41.622;2.276;2022-08-11T06:32:12;99818.27;;;28.57;35.82
62592;BME280;48659;41.622;2.276;2022-08-11T06:34:53;99815.43;;;28.13;36.14
62592;BME280;48659;41.622;2.276;2022-08-11T06:37:29;99816.94;;;28.68;36.20
62592;BME280;48659;41.622;2.276;2022-08-11T06:40:06;99817.28;;;29.21;35.00
62592;BME280;48659;41.622;2.276;2022-08-11T06:42:45;99813.16;;;29.33;34.41
62592;BME280;48659;41.622;2.276;2022-08-11T06:45:26;99814.59;;;29.26;34.87
62592;BME280;48659;41.622;2.276;2022-08-11T06:47:55;99811.60;;;29.79;33.99
62592;BME280;48659;41.622;2.276;2022-08-11T06:50:22;99812.43;;;29.52;34.18
62592;BME280;48659;41.622;2.276;2022-08-11T06:52:52;99812.70;;;29.83;33.73
62592;BME280;48659;41.622;2.276;2022-08-11T06:55:23;99811.11;;;30.29;33.05
62592;BME280;48659;41.622;2.276;2022-08-11T06:57:51;99814.37;;;30.39;32.91
62592;BME280;48659;41.622;2.276;2022-08-11T07:00:20;99816.05;;;30.59;32.84
62592;BME280;48659;41.622;2.276;2022-08-11T07:02:51;99814.34;;;30.12;33.04
62592;BME280;48659;41.622;2.276;2022-08-11T07:05:23;99812.72;;;30.80;32.88
62592;BME280;48659;41.622;2.276;2022-08-11T07:08:14;99813.04;;;30.19;33.47
62592;BME280;48659;41.622;2.276;2022-08-11T07:10:56;99811.86;;;30.43;33.74
62592;BME280;48659;41.622;2.276;2022-08-11T07:13:28;99812.99;;;29.82;34.22
62592;BME280;48659;41.622;2.276;2022-08-11T07:15:57;99812.08;;;30.15;33.72
62592;BME280;48659;41.622;2.276;2022-08-11T07:18:28;99816.16;;;29.50;34.56
62592;BME280;48659;41.622;2.276;2022-08-11T07:21:08;99818.60;;;30.13;34.06
62592;BME280;48659;41.622;2.276;2022-08-11T07:23:37;99818.90;;;30.67;33.42
62592;BME280;48659;41.622;2.276;2022-08-11T07:26:06;99820.66;;;29.97;34.58
62592;BME280;48659;41.622;2.276;2022-08-11T07:28:36;99826.70;;;28.87;36.31
62592;BME280;48659;41.622;2.276;2022-08-11T07:31:08;99829.10;;;29.26;36.37
62592;BME280;48659;41.622;2.276;2022-08-11T07:33:41;99822.72;;;30.79;34.06
62592;BME280;48659;41.622;2.276;2022-08-11T07:36:11;99820.27;;;30.34;34.64
62592;BME280;48659;41.622;2.276;2022-08-11T07:38:42;99821.90;;;30.38;34.69
62592;BME280;48659;41.622;2.276;2022-08-11T07:41:12;99821.75;;;30.71;33.82
62592;BME280;48659;41.622;2.276;2022-08-11T07:43:42;99822.76;;;29.77;35.21
62592;BME280;48659;41.622;2.276;2022-08-11T07:46:10;99821.45;;;30.47;34.56
62592;BME280;48659;41.622;2.276;2022-08-11T07:48:41;99823.70;;;30.10;35.00
62592;BME280;48659;41.622;2.276;2022-08-11T07:51:08;99820.79;;;30.65;33.93
62592;BME280;48659;41.622;2.276;2022-08-11T07:53:37;99823.01;;;29.68;35.43
62592;BME280;48659;41.622;2.276;2022-08-11T07:56:06;99820.98;;;30.41;34.49
62592;BME280;48659;41.622;2.276;2022-08-11T07:58:35;99822.78;;;30.42;34.73
62592;BME280;48659;41.622;2.276;2022-08-11T08:01:03;99823.42;;;29.67;35.57
62592;BME280;48659;41.622;2.276;2022-08-11T08:03:32;99819.75;;;30.62;34.48
62592;BME280;48659;41.622;2.276;2022-08-11T08:05:59;99818.77;;;30.50;33.93
62592;BME280;48659;41.622;2.276;2022-08-11T08:08:34;99819.90;;;29.98;34.00
62592;BME280;48659;41.622;2.276;2022-08-11T08:11:01;99823.07;;;31.16;33.68
62592;BME280;48659;41.622;2.276;2022-08-11T08:13:31;99822.61;;;29.98;34.06
62592;BME280;48659;41.622;2.276;2022-08-11T08:16:00;99821.82;;;30.84;33.50
62592;BME280;48659;41.622;2.276;2022-08-11T08:18:33;99819.59;;;30.18;34.36
62592;BME280;48659;41.622;2.276;2022-08-11T08:21:03;99822.66;;;30.39;34.18
62592;BME280;48659;41.622;2.276;2022-08-11T08:23:30;99818.94;;;30.87;33.66
62592;BME280;48659;41.622;2.276;2022-08-11T08:25:59;99820.63;;;30.94;33.57
62592;BME280;48659;41.622;2.276;2022-08-11T08:28:28;99820.02;;;29.38;35.80
62592;BME280;48659;41.622;2.276;2022-08-11T08:30:56;99819.02;;;30.90;33.57
62592;BME280;48659;41.622;2.276;2022-08-11T08:33:26;99824.25;;;29.14;36.54
62592;BME280;48659;41.622;2.276;2022-08-11T08:35:56;99820.98;;;29.64;35.83
62592;BME280;48659;41.622;2.276;2022-08-11T08:38:24;99819.93;;;30.16;35.47
62592;BME280;48659;41.622;2.276;2022-08-11T08:40:53;99818.09;;;29.22;35.98
62592;BME280;48659;41.622;2.276;2022-08-11T08:43:21;99812.96;;;29.70;35.04
62592;BME280;48659;41.622;2.276;2022-08-11T08:45:53;99815.19;;;29.00;35.54
62592;BME280;48659;41.622;2.276;2022-08-11T08:48:24;99816.06;;;29.93;34.76
62592;BME280;48659;41.622;2.276;2022-08-11T08:51:02;99816.79;;;31.06;32.25
62592;BME280;48659;41.622;2.276;2022-08-11T08:53:34;99814.44;;;31.37;31.48
62592;BME280;48659;41.622;2.276;2022-08-11T08:56:02;99813.89;;;30.81;32.17
62592;BME280;48659;41.622;2.276;2022-08-11T08:58:33;99813.00;;;31.22;31.74
62592;BME280;48659;41.622;2.276;2022-08-11T09:01:03;99811.63;;;31.25;31.19
62592;BME280;48659;41.622;2.276;2022-08-11T09:03:30;99810.59;;;31.08;30.08
62592;BME280;48659;41.622;2.276;2022-08-11T09:06:07;99810.98;;;29.10;32.25
62592;BME280;48659;41.622;2.276;2022-08-11T09:08:35;99809.00;;;30.36;30.77
62592;BME280;48659;41.622;2.276;2022-08-11T09:11:04;99807.49;;;30.71;29.57
62592;BME280;48659;41.622;2.276;2022-08-11T09:13:34;99814.60;;;29.09;28.69
62592;BME280;48659;41.622;2.276;2022-08-11T09:16:03;99812.51;;;29.83;29.39
62592;BME280;48659;41.622;2.276;2022-08-11T09:18:32;99812.18;;;31.13;25.55
62592;BME280;48659;41.622;2.276;2022-08-11T09:21:01;99805.68;;;30.34;23.93
62592;BME280;48659;41.622;2.276;2022-08-11T09:23:29;99806.16;;;31.37;22.68
62592;BME280;48659;41.622;2.276;2022-08-11T09:25:58;99799.33;;;31.87;23.32
62592;BME280;48659;41.622;2.276;2022-08-11T09:28:27;99803.44;;;31.36;23.62
62592;BME280;48659;41.622;2.276;2022-08-11T09:30:57;99795.25;;;32.73;22.31
62592;BME280;48659;41.622;2.276;2022-08-11T09:33:34;99802.45;;;30.41;24.05
62592;BME280;48659;41.622;2.276;2022-08-11T09:36:02;99803.06;;;31.28;23.93
62592;BME280;48659;41.622;2.276;2022-08-11T09:38:30;99800.12;;;31.83;23.49
62592;BME280;48659;41.622;2.276;2022-08-11T09:41:00;99800.75;;;31.77;23.63
62592;BME280;48659;41.622;2.276;2022-08-11T09:43:28;99797.12;;;32.62;21.90
62592;BME280;48659;41.622;2.276;2022-08-11T09:45:58;99795.55;;;32.56;22.46
62592;BME280;48659;41.622;2.276;2022-08-11T09:48:37;99794.10;;;33.50;21.77
62592;BME280;48659;41.622;2.276;2022-08-11T09:51:06;99797.85;;;31.22;24.27
62592;BME280;48659;41.622;2.276;2022-08-11T09:53:36;99788.36;;;32.73;22.56
62592;BME280;48659;41.622;2.276;2022-08-11T09:56:04;99792.62;;;32.30;23.00
62592;BME280;48659;41.622;2.276;2022-08-11T09:58:32;99791.41;;;32.84;21.12
62592;BME280;48659;41.622;2.276;2022-08-11T10:00:59;99790.96;;;32.81;20.72
62592;BME280;48659;41.622;2.276;2022-08-11T10:03:28;99791.95;;;33.19;20.09
62592;BME280;48659;41.622;2.276;2022-08-11T10:06:00;99789.36;;;33.17;20.45
62592;BME280;48659;41.622;2.276;2022-08-11T10:08:31;99793.47;;;32.64;20.93
62592;BME280;48659;41.622;2.276;2022-08-11T10:11:00;99782.89;;;33.40;19.94
62592;BME280;48659;41.622;2.276;2022-08-11T10:13:34;99784.28;;;32.08;20.94
62592;BME280;48659;41.622;2.276;2022-08-11T10:16:07;99778.56;;;33.55;20.11
62592;BME280;48659;41.622;2.276;2022-08-11T10:18:39;99777.69;;;32.00;21.38
62592;BME280;48659;41.622;2.276;2022-08-11T10:21:10;99772.46;;;32.29;21.20
62592;BME280;48659;41.622;2.276;2022-08-11T10:23:38;99773.09;;;32.26;20.97
62592;BME280;48659;41.622;2.276;2022-08-11T10:26:06;99766.08;;;33.45;19.93
62592;BME280;48659;41.622;2.276;2022-08-11T10:28:35;99762.51;;;32.96;20.54
62592;BME280;48659;41.622;2.276;2022-08-11T10:31:04;99759.16;;;33.92;20.61
62592;BME280;48659;41.622;2.276;2022-08-11T10:33:32;99756.45;;;33.86;21.92
62592;BME280;48659;41.622;2.276;2022-08-11T10:36:01;99755.50;;;33.35;24.07
62592;BME280;48659;41.622;2.276;2022-08-11T10:38:29;99752.18;;;34.05;23.99
62592;BME280;48659;41.622;2.276;2022-08-11T10:40:57;99751.36;;;33.70;23.41
62592;BME280;48659;41.622;2.276;2022-08-11T10:43:33;99751.82;;;31.52;27.33
62592;BME280;48659;41.622;2.276;2022-08-11T10:46:01;99756.52;;;32.95;26.87
62592;BME280;48659;41.622;2.276;2022-08-11T10:48:36;99759.90;;;32.19;27.63
62592;BME280;48659;41.622;2.276;2022-08-11T10:51:06;99752.81;;;34.25;26.02
62592;BME280;48659;41.622;2.276;2022-08-11T10:53:35;99753.33;;;34.20;26.93
62592;BME280;48659;41.622;2.276;2022-08-11T10:56:05;99750.35;;;33.59;26.30
62592;BME280;48659;41.622;2.276;2022-08-11T10:58:36;99750.86;;;33.48;27.28
62592;BME280;48659;41.622;2.276;2022-08-11T11:01:05;99747.41;;;33.75;27.84
62592;BME280;48659;41.622;2.276;2022-08-11T11:03:35;99748.27;;;32.34;30.18
62592;BME280;48659;41.622;2.276;2022-08-11T11:06:08;99748.59;;;33.20;28.04
62592;BME280;48659;41.622;2.276;2022-08-11T11:08:43;99746.10;;;33.55;27.12
62592;BME280;48659;41.622;2.276;2022-08-11T11:11:12;99748.23;;;32.72;29.14
62592;BME280;48659;41.622;2.276;2022-08-11T11:13:42;99747.14;;;32.25;30.29
62592;BME280;48659;41.622;2.276;2022-08-11T11:16:16;99745.75;;;32.98;29.83
62592;BME280;48659;41.622;2.276;2022-08-11T11:18:44;99739.22;;;32.81;30.30
62592;BME280;48659;41.622;2.276;2022-08-11T11:21:16;99741.45;;;33.32;29.74
62592;BME280;48659;41.622;2.276;2022-08-11T11:24:07;99738.62;;;31.97;31.49
62592;BME280;48659;41.622;2.276;2022-08-11T11:26:42;99739.42;;;32.78;29.93
62592;BME280;48659;41.622;2.276;2022-08-11T11:29:33;99744.83;;;32.99;30.24
62592;BME280;48659;41.622;2.276;2022-08-11T11:32:16;99738.29;;;33.61;29.06
62592;BME280;48659;41.622;2.276;2022-08-11T11:35:09;99739.46;;;34.14;28.66
62592;BME280;48659;41.622;2.276;2022-08-11T11:37:47;99742.92;;;32.41;30.53
62592;BME280;48659;41.622;2.276;2022-08-11T11:40:18;99747.43;;;33.60;28.63
62592;BME280;48659;41.622;2.276;2022-08-11T11:42:49;99745.04;;;33.27;28.40
62592;BME280;48659;41.622;2.276;2022-08-11T11:45:18;99744.62;;;33.65;28.32
62592;BME280;48659;41.622;2.276;2022-08-11T11:47:47;99745.91;;;31.62;30.32
62592;BME280;48659;41.622;2.276;2022-08-11T11:50:17;99750.38;;;31.94;29.84
62592;BME280;48659;41.622;2.276;2022-08-11T11:52:49;99748.75;;;32.23;30.12
62592;BME280;48659;41.622;2.276;2022-08-11T11:55:17;99749.02;;;32.19;29.45
62592;BME280;48659;41.622;2.276;2022-08-11T11:57:46;99748.47;;;32.43;28.15
62592;BME280;48659;41.622;2.276;2022-08-11T12:00:14;99752.62;;;31.67;28.28
62592;BME280;48659;41.622;2.276;2022-08-11T12:02:42;99743.31;;;31.51;27.01
62592;BME280;48659;41.622;2.276;2022-08-11T12:05:10;99744.09;;;31.98;26.57
62592;BME280;48659;41.622;2.276;2022-08-11T12:07:37;99739.95;;;32.11;26.93
62592;BME280;48659;41.622;2.276;2022-08-11T12:10:07;99745.43;;;31.74;27.31
62592;BME280;48659;41.622;2.276;2022-08-11T12:12:39;99743.65;;;31.86;27.22
62592;BME280;48659;41.622;2.276;2022-08-11T12:15:07;99738.45;;;32.01;25.45
62592;BME280;48659;41.622;2.276;2022-08-11T12:17:35;99741.93;;;32.93;23.71
62592;BME280;48659;41.622;2.276;2022-08-11T12:20:06;99742.00;;;32.81;23.12
62592;BME280;48659;41.622;2.276;2022-08-11T12:22:37;99739.66;;;33.71;22.67
62592;BME280;48659;41.622;2.276;2022-08-11T12:25:06;99735.60;;;34.27;21.52
62592;BME280;48659;41.622;2.276;2022-08-11T12:27:33;99731.78;;;32.89;22.98
62592;BME280;48659;41.622;2.276;2022-08-11T12:30:03;99740.41;;;31.54;23.99
62592;BME280;48659;41.622;2.276;2022-08-11T12:32:34;99732.86;;;32.75;23.29
62592;BME280;48659;41.622;2.276;2022-08-11T12:35:03;99733.35;;;32.94;23.91
62592;BME280;48659;41.622;2.276;2022-08-11T12:37:35;99738.27;;;33.06;22.32
62592;BME280;48659;41.622;2.276;2022-08-11T12:40:07;99737.01;;;32.77;21.74
62592;BME280;48659;41.622;2.276;2022-08-11T12:42:37;99737.99;;;32.93;22.31
62592;BME280;48659;41.622;2.276;2022-08-11T12:45:12;99733.58;;;33.05;20.62
62592;BME280;48659;41.622;2.276;2022-08-11T12:47:40;99733.49;;;34.12;20.82
62592;BME280;48659;41.622;2.276;2022-08-11T12:50:09;99731.69;;;32.97;21.68
62592;BME280;48659;41.622;2.276;2022-08-11T12:52:44;99738.15;;;32.68;21.83
62592;BME280;48659;41.622;2.276;2022-08-11T12:55:19;99734.67;;;33.24;21.29
62592;BME280;48659;41.622;2.276;2022-08-11T12:57:50;99739.09;;;32.78;21.42
62592;BME280;48659;41.622;2.276;2022-08-11T13:00:19;99733.95;;;33.50;21.27
62592;BME280;48659;41.622;2.276;2022-08-11T13:02:47;99733.35;;;34.40;21.14
62592;BME280;48659;41.622;2.276;2022-08-11T13:05:15;99733.60;;;33.42;21.91
62592;BME280;48659;41.622;2.276;2022-08-11T13:07:44;99728.86;;;33.81;21.80
62592;BME280;48659;41.622;2.276;2022-08-11T13:10:15;99731.04;;;33.02;23.09
62592;BME280;48659;41.622;2.276;2022-08-11T13:12:43;99727.96;;;33.63;22.50
62592;BME280;48659;41.622;2.276;2022-08-11T13:15:14;99733.47;;;32.96;23.62
62592;BME280;48659;41.622;2.276;2022-08-11T13:17:43;99734.01;;;33.53;23.44
62592;BME280;48659;41.622;2.276;2022-08-11T13:20:12;99725.84;;;34.61;22.47
62592;BME280;48659;41.622;2.276;2022-08-11T13:22:42;99727.12;;;34.44;23.35
62592;BME280;48659;41.622;2.276;2022-08-11T13:25:11;99724.59;;;34.23;23.23
62592;BME280;48659;41.622;2.276;2022-08-11T13:27:39;99722.64;;;33.14;23.60
62592;BME280;48659;41.622;2.276;2022-08-11T13:30:08;99719.52;;;33.26;23.34
62592;BME280;48659;41.622;2.276;2022-08-11T13:32:36;99716.38;;;33.46;24.13
62592;BME280;48659;41.622;2.276;2022-08-11T13:35:04;99718.44;;;34.43;23.15
62592;BME280;48659;41.622;2.276;2022-08-11T13:37:36;99727.48;;;33.48;22.87
62592;BME280;48659;41.622;2.276;2022-08-11T13:40:05;99726.43;;;34.77;22.18
62592;BME280;48659;41.622;2.276;2022-08-11T13:42:37;99727.26;;;32.73;23.95
62592;BME280;48659;41.622;2.276;2022-08-11T13:45:06;99718.44;;;34.02;23.15
62592;BME280;48659;41.622;2.276;2022-08-11T13:47:35;99710.73;;;33.74;22.46
62592;BME280;48659;41.622;2.276;2022-08-11T13:50:05;99715.50;;;35.22;21.48
62592;BME280;48659;41.622;2.276;2022-08-11T13:52:34;99713.24;;;35.44;21.11
62592;BME280;48659;41.622;2.276;2022-08-11T13:55:03;99715.54;;;35.33;20.07
62592;BME280;48659;41.622;2.276;2022-08-11T13:57:35;99713.13;;;34.07;21.26
62592;BME280;48659;41.622;2.276;2022-08-11T14:00:06;99714.28;;;34.31;21.43
62592;BME280;48659;41.622;2.276;2022-08-11T14:02:36;99715.47;;;33.49;22.25
62592;BME280;48659;41.622;2.276;2022-08-11T14:05:09;99718.13;;;33.85;22.69
62592;BME280;48659;41.622;2.276;2022-08-11T14:07:42;99722.46;;;33.90;22.67
62592;BME280;48659;41.622;2.276;2022-08-11T14:10:11;99716.35;;;34.60;22.25